createdAt,value
2022-08-11T00:00:38.224Z,16.92
2022-08-11T00:01:38.185Z,16.88
2022-08-11T00:02:38.508Z,16.84
2022-08-11T00:03:42.331Z,16.80
2022-08-11T00:04:38.170Z,16.77
2022-08-11T00:05:38.194Z,16.75
2022-08-11T00:06:38.136Z,16.74
2022-08-11T00:07:38.112Z,16.73
2022-08-11T00:08:38.118Z,16.72
2022-08-11T00:09:39.288Z,16.72
2022-08-11T00:10:38.056Z,16.72
2022-08-11T00:11:38.147Z,16.73
2022-08-11T00:12:38.214Z,16.74
2022-08-11T00:13:38.022Z,16.74
2022-08-11T00:14:38.112Z,16.73
2022-08-11T00:15:37.993Z,16.70
2022-08-11T00:16:38.034Z,16.67
2022-08-11T00:17:37.995Z,16.63
2022-08-11T00:18:37.974Z,16.58
2022-08-11T00:20:12.401Z,16.54
2022-08-11T00:20:37.970Z,16.49
2022-08-11T00:22:03.036Z,16.43
2022-08-11T00:22:38.150Z,16.35
2022-08-11T00:23:37.944Z,16.27
2022-08-11T00:24:54.875Z,16.23
2022-08-11T00:25:37.884Z,16.22
2022-08-11T00:26:37.976Z,16.24
2022-08-11T00:27:37.890Z,16.25
2022-08-11T00:28:37.898Z,16.25
2022-08-11T00:29:38.031Z,16.25
2022-08-11T00:30:37.846Z,16.24
2022-08-11T00:31:37.816Z,16.22
2022-08-11T00:32:37.947Z,16.19
2022-08-11T00:33:41.145Z,16.16
2022-08-11T00:34:37.794Z,16.12
2022-08-11T00:35:54.282Z,16.08
2022-08-11T00:36:37.745Z,16.07
2022-08-11T00:37:37.727Z,16.05
2022-08-11T00:38:37.702Z,16.03
2022-08-11T00:39:37.735Z,16.02
2022-08-11T00:40:37.706Z,16.02
2022-08-11T00:41:37.705Z,16.03
2022-08-11T00:42:37.902Z,16.05
2022-08-11T00:43:37.685Z,16.06
2022-08-11T00:44:37.661Z,16.08
2022-08-11T00:45:37.610Z,16.09
2022-08-11T00:46:37.681Z,16.09
2022-08-11T00:47:37.610Z,16.08
2022-08-11T00:48:37.605Z,16.06
2022-08-11T00:49:37.596Z,16.02
2022-08-11T00:50:37.576Z,15.97
2022-08-11T00:52:04.550Z,15.92
2022-08-11T00:52:37.660Z,15.88
2022-08-11T00:53:37.519Z,15.84
2022-08-11T00:54:37.528Z,15.80
2022-08-11T00:55:37.508Z,15.76
2022-08-11T00:56:37.510Z,15.73
2022-08-11T00:57:38.610Z,15.69
2022-08-11T00:58:37.483Z,15.65
2022-08-11T00:59:37.449Z,15.61
2022-08-11T01:00:37.488Z,15.57
2022-08-11T01:01:37.410Z,15.55
2022-08-11T01:02:37.491Z,15.54
2022-08-11T01:03:37.432Z,15.52
2022-08-11T01:04:37.408Z,15.48
2022-08-11T01:05:37.391Z,15.44
2022-08-11T01:06:37.394Z,15.41
2022-08-11T01:07:59.080Z,15.40
2022-08-11T01:08:37.449Z,15.36
2022-08-11T01:09:37.336Z,15.32
2022-08-11T01:10:37.323Z,15.27
2022-08-11T01:11:37.290Z,15.21
2022-08-11T01:12:37.455Z,15.15
2022-08-11T01:13:37.303Z,15.07
2022-08-11T01:14:37.272Z,15.01
2022-08-11T01:15:37.234Z,14.97
2022-08-11T01:16:37.249Z,14.95
2022-08-11T01:17:37.230Z,14.94
2022-08-11T01:18:37.243Z,14.96
2022-08-11T01:20:38.502Z,15.00
2022-08-11T01:20:52.820Z,15.04
2022-08-11T01:21:37.169Z,15.06
2022-08-11T01:22:37.311Z,15.05
2022-08-11T01:23:37.212Z,15.03
2022-08-11T01:24:37.124Z,15.00
2022-08-11T01:25:57.543Z,14.98
2022-08-11T01:26:37.110Z,14.95
2022-08-11T01:27:37.077Z,14.93
2022-08-11T01:28:37.067Z,14.91
2022-08-11T01:29:37.073Z,14.89
2022-08-11T01:30:37.057Z,14.86
2022-08-11T01:31:37.052Z,14.83
2022-08-11T01:32:37.234Z,14.78
2022-08-11T01:33:37.031Z,14.74
2022-08-11T01:34:36.991Z,14.71
2022-08-11T01:35:37.378Z,14.67
2022-08-11T01:36:36.955Z,14.62
2022-08-11T01:37:36.945Z,14.56
2022-08-11T01:38:36.974Z,14.50
2022-08-11T01:39:37.043Z,14.45
2022-08-11T01:40:36.915Z,14.40
2022-08-11T01:41:36.890Z,14.37
2022-08-11T01:42:37.156Z,14.37
2022-08-11T01:43:36.896Z,14.39
2022-08-11T01:44:36.858Z,14.43
2022-08-11T01:45:36.856Z,14.46
2022-08-11T01:46:36.856Z,14.47
2022-08-11T01:47:36.868Z,14.47
2022-08-11T01:48:36.853Z,14.46
2022-08-11T01:50:08.589Z,14.44
2022-08-11T01:50:36.802Z,14.41
2022-08-11T01:51:36.749Z,14.40
2022-08-11T01:52:36.782Z,14.39
2022-08-11T01:53:36.743Z,14.36
2022-08-11T01:54:36.746Z,14.32
2022-08-11T01:55:36.741Z,14.29
2022-08-11T01:56:36.709Z,14.26
2022-08-11T01:57:36.677Z,14.25
2022-08-11T01:58:44.245Z,14.25
2022-08-11T01:59:36.672Z,14.26
2022-08-11T02:00:36.725Z,14.27
2022-08-11T02:01:36.631Z,14.28
2022-08-11T02:02:36.855Z,14.29
2022-08-11T02:03:36.585Z,14.29
2022-08-11T02:04:36.651Z,14.28
2022-08-11T02:05:36.589Z,14.28
2022-08-11T02:06:36.570Z,14.27
2022-08-11T02:07:36.547Z,14.26
2022-08-11T02:08:36.560Z,14.25
2022-08-11T02:09:36.524Z,14.22
2022-08-11T02:10:38.240Z,14.17
2022-08-11T02:11:37.334Z,14.12
2022-08-11T02:12:36.960Z,14.08
2022-08-11T02:13:36.988Z,14.02
2022-08-11T02:14:36.525Z,13.95
2022-08-11T02:15:36.448Z,13.88
2022-08-11T02:16:36.461Z,13.80
2022-08-11T02:17:36.422Z,13.72
2022-08-11T02:18:36.398Z,13.65
2022-08-11T02:19:36.399Z,13.60
2022-08-11T02:20:36.380Z,13.57
2022-08-11T02:21:36.372Z,13.57
2022-08-11T02:22:36.709Z,13.57
2022-08-11T02:24:03.950Z,13.58
2022-08-11T02:24:36.337Z,13.58
2022-08-11T02:25:36.325Z,13.58
2022-08-11T02:26:36.295Z,13.59
2022-08-11T02:27:36.318Z,13.60
2022-08-11T02:28:40.206Z,13.60
2022-08-11T02:29:36.278Z,13.58
2022-08-11T02:30:36.253Z,13.55
2022-08-11T02:32:28.577Z,13.51
2022-08-11T02:32:36.368Z,13.46
2022-08-11T02:33:36.451Z,13.41
2022-08-11T02:34:36.208Z,13.36
2022-08-11T02:35:36.175Z,13.31
2022-08-11T02:36:36.162Z,13.26
2022-08-11T02:37:36.146Z,13.23
2022-08-11T02:38:36.140Z,13.20
2022-08-11T02:39:36.175Z,13.18
2022-08-11T02:40:36.137Z,13.14
2022-08-11T02:41:36.133Z,13.11
2022-08-11T02:42:36.419Z,13.07
2022-08-11T02:43:36.073Z,13.04
2022-08-11T02:44:36.053Z,13.02
2022-08-11T02:45:36.039Z,13.00
2022-08-11T02:46:36.052Z,13.00
2022-08-11T02:47:35.997Z,13.02
2022-08-11T02:48:36.040Z,13.06
2022-08-11T02:49:36.022Z,13.09
2022-08-11T02:50:35.974Z,13.09
2022-08-11T02:51:35.941Z,13.07
2022-08-11T02:52:36.050Z,13.06
2022-08-11T02:53:35.916Z,13.03
2022-08-11T02:54:35.917Z,12.98
2022-08-11T02:55:44.456Z,12.93
2022-08-11T02:56:35.912Z,12.90
2022-08-11T02:57:35.870Z,12.89
2022-08-11T02:58:35.855Z,12.89
2022-08-11T02:59:35.864Z,12.90
2022-08-11T03:00:35.871Z,12.92
2022-08-11T03:01:35.851Z,12.94
2022-08-11T03:02:35.853Z,12.97
2022-08-11T03:03:35.806Z,13.01
2022-08-11T03:04:37.484Z,13.06
2022-08-11T03:05:35.768Z,13.11
2022-08-11T03:06:35.770Z,13.16
2022-08-11T03:07:35.753Z,13.20
2022-08-11T03:08:35.747Z,13.23
2022-08-11T03:09:35.750Z,13.26
2022-08-11T03:10:35.728Z,13.30
2022-08-11T03:11:35.693Z,13.33
2022-08-11T03:12:35.719Z,13.36
2022-08-11T03:13:35.651Z,13.37
2022-08-11T03:14:35.645Z,13.34
2022-08-11T03:15:35.692Z,13.28
2022-08-11T03:16:35.657Z,13.22
2022-08-11T03:17:35.589Z,13.17
2022-08-11T03:18:35.613Z,13.12
2022-08-11T03:19:35.579Z,13.08
2022-08-11T03:20:38.311Z,13.05
2022-08-11T03:22:01.605Z,13.03
2022-08-11T03:22:35.574Z,13.01
2022-08-11T03:23:35.517Z,13.01
2022-08-11T03:24:35.507Z,13.00
2022-08-11T03:25:35.493Z,12.97
2022-08-11T03:26:35.498Z,12.92
2022-08-11T03:27:35.481Z,12.88
2022-08-11T03:28:35.453Z,12.84
2022-08-11T03:29:35.451Z,12.81
2022-08-11T03:30:35.451Z,12.80
2022-08-11T03:31:35.449Z,12.81
2022-08-11T03:32:35.417Z,12.82
2022-08-11T03:33:35.408Z,12.82
2022-08-11T03:34:35.382Z,12.81
2022-08-11T03:35:35.383Z,12.78
2022-08-11T03:36:55.712Z,12.73
2022-08-11T03:37:35.372Z,12.69
2022-08-11T03:38:35.329Z,12.66
2022-08-11T03:39:35.397Z,12.64
2022-08-11T03:40:35.309Z,12.61
2022-08-11T03:42:02.907Z,12.58
2022-08-11T03:42:35.282Z,12.57
2022-08-11T03:43:35.295Z,12.57
2022-08-11T03:44:35.241Z,12.58
2022-08-11T03:45:40.307Z,12.61
2022-08-11T03:46:35.297Z,12.63
2022-08-11T03:47:35.214Z,12.64
2022-08-11T03:48:35.226Z,12.62
2022-08-11T03:49:35.204Z,12.59
2022-08-11T03:50:35.164Z,12.56
2022-08-11T03:51:44.823Z,12.53
2022-08-11T03:52:35.147Z,12.52
2022-08-11T03:53:35.130Z,12.53
2022-08-11T03:54:35.134Z,12.56
2022-08-11T03:55:35.214Z,12.61
2022-08-11T03:56:35.110Z,12.65
2022-08-11T03:57:35.109Z,12.67
2022-08-11T03:58:39.567Z,12.68
2022-08-11T03:59:35.096Z,12.68
2022-08-11T04:00:35.060Z,12.68
2022-08-11T04:01:35.095Z,12.67
2022-08-11T04:02:35.022Z,12.65
2022-08-11T04:03:35.004Z,12.61
2022-08-11T04:04:34.997Z,12.59
2022-08-11T04:05:34.977Z,12.58
2022-08-11T04:06:34.978Z,12.56
2022-08-11T04:07:34.957Z,12.56
2022-08-11T04:08:34.927Z,12.57
2022-08-11T04:09:34.904Z,12.59
2022-08-11T04:10:34.913Z,12.62
2022-08-11T04:11:34.897Z,12.66
2022-08-11T04:12:36.411Z,12.68
2022-08-11T04:13:34.874Z,12.68
2022-08-11T04:14:34.860Z,12.69
2022-08-11T04:15:34.845Z,12.68
2022-08-11T04:16:34.841Z,12.66
2022-08-11T04:17:34.842Z,12.65
2022-08-11T04:18:34.813Z,12.67
2022-08-11T04:19:34.794Z,12.69
2022-08-11T04:20:34.774Z,12.73
2022-08-11T04:21:34.761Z,12.80
2022-08-11T04:22:34.757Z,12.87
2022-08-11T04:24:35.360Z,12.94
2022-08-11T04:24:48.377Z,12.99
2022-08-11T04:25:34.699Z,13.04
2022-08-11T04:26:34.696Z,13.09
2022-08-11T04:27:37.406Z,13.14
2022-08-11T04:28:34.676Z,13.17
2022-08-11T04:30:02.121Z,13.19
2022-08-11T04:30:34.672Z,13.20
2022-08-11T04:31:51.090Z,13.20
2022-08-11T04:32:34.611Z,13.22
2022-08-11T04:33:34.978Z,13.25
2022-08-11T04:34:34.588Z,13.29
2022-08-11T04:35:34.604Z,13.33
2022-08-11T04:36:34.566Z,13.39
2022-08-11T04:37:34.868Z,13.44
2022-08-11T04:38:34.539Z,13.48
2022-08-11T04:39:34.611Z,13.50
2022-08-11T04:40:34.507Z,13.51
2022-08-11T04:41:34.490Z,13.52
2022-08-11T04:42:34.637Z,13.52
2022-08-11T04:43:34.494Z,13.51
2022-08-11T04:44:34.453Z,13.52
2022-08-11T04:45:34.465Z,13.55
2022-08-11T04:46:34.433Z,13.58
2022-08-11T04:47:34.403Z,13.61
2022-08-11T04:48:34.451Z,13.64
2022-08-11T04:49:34.451Z,13.66
2022-08-11T04:50:34.362Z,13.70
2022-08-11T04:51:34.360Z,13.75
2022-08-11T04:52:37.728Z,13.82
2022-08-11T04:53:34.348Z,13.91
2022-08-11T04:54:34.309Z,13.99
2022-08-11T04:55:36.118Z,14.06
2022-08-11T04:56:34.316Z,14.13
2022-08-11T04:57:34.272Z,14.18
2022-08-11T04:58:34.274Z,14.19
2022-08-11T04:59:34.299Z,14.20
2022-08-11T05:00:34.228Z,14.22
2022-08-11T05:01:37.355Z,14.24
2022-08-11T05:02:34.228Z,14.27
2022-08-11T05:03:34.218Z,14.31
2022-08-11T05:04:34.179Z,14.37
2022-08-11T05:05:34.179Z,14.44
2022-08-11T05:06:34.152Z,14.53
2022-08-11T05:07:34.165Z,14.61
2022-08-11T05:08:34.120Z,14.69
2022-08-11T05:09:34.158Z,14.78
2022-08-11T05:10:34.124Z,14.86
2022-08-11T05:11:34.118Z,14.94
2022-08-11T05:12:34.184Z,15.01
2022-08-11T05:13:34.067Z,15.05
2022-08-11T05:14:34.041Z,15.11
2022-08-11T05:15:42.732Z,15.17
2022-08-11T05:16:34.050Z,15.23
2022-08-11T05:17:34.034Z,15.30
2022-08-11T05:18:34.005Z,15.37
2022-08-11T05:19:33.996Z,15.42
2022-08-11T05:20:33.957Z,15.48
2022-08-11T05:21:33.952Z,15.53
2022-08-11T05:22:33.959Z,15.58
2022-08-11T05:23:33.942Z,15.63
2022-08-11T05:24:33.910Z,15.67
2022-08-11T05:26:09.340Z,15.72
2022-08-11T05:26:52.735Z,15.78
2022-08-11T05:27:33.927Z,15.83
2022-08-11T05:28:33.876Z,15.90
2022-08-11T05:29:33.870Z,15.99
2022-08-11T05:30:34.510Z,16.08
2022-08-11T05:31:33.842Z,16.19
2022-08-11T05:32:33.810Z,16.29
2022-08-11T05:33:33.827Z,16.38
2022-08-11T05:34:33.809Z,16.49
2022-08-11T05:36:02.316Z,16.59
2022-08-11T05:36:33.782Z,16.69
2022-08-11T05:37:33.765Z,16.79
2022-08-11T05:38:33.745Z,16.89
2022-08-11T05:39:36.794Z,16.96
2022-08-11T05:40:33.737Z,16.99
2022-08-11T05:41:33.716Z,17.02
2022-08-11T05:42:33.680Z,17.06
2022-08-11T05:43:33.690Z,17.12
2022-08-11T05:44:33.675Z,17.17
2022-08-11T05:46:02.846Z,17.23
2022-08-11T05:46:33.636Z,17.29
2022-08-11T05:47:33.634Z,17.33
2022-08-11T05:48:33.602Z,17.37
2022-08-11T05:49:33.629Z,17.42
2022-08-11T05:50:33.597Z,17.47
2022-08-11T05:51:33.576Z,17.53
2022-08-11T05:52:33.568Z,17.59
2022-08-11T05:53:36.001Z,17.64
2022-08-11T05:54:33.586Z,17.68
2022-08-11T05:55:33.568Z,17.71
2022-08-11T05:56:33.515Z,17.73
2022-08-11T05:57:48.714Z,17.73
2022-08-11T05:58:36.839Z,17.73
2022-08-11T05:59:33.487Z,17.73
2022-08-11T06:00:33.533Z,17.75
2022-08-11T06:01:33.514Z,17.80
2022-08-11T06:02:33.441Z,17.87
2022-08-11T06:03:33.447Z,17.95
2022-08-11T06:04:33.440Z,18.02
2022-08-11T06:05:38.496Z,18.07
2022-08-11T06:06:33.406Z,18.11
2022-08-11T06:07:48.606Z,18.14
2022-08-11T06:08:33.408Z,18.18
2022-08-11T06:09:33.370Z,18.20
2022-08-11T06:10:33.429Z,18.23
2022-08-11T06:11:43.705Z,18.28
2022-08-11T06:12:33.377Z,18.35
2022-08-11T06:13:33.285Z,18.46
2022-08-11T06:14:33.277Z,18.54
2022-08-11T06:15:33.287Z,18.60
2022-08-11T06:16:33.265Z,18.64
2022-08-11T06:17:38.623Z,18.69
2022-08-11T06:18:33.222Z,18.74
2022-08-11T06:19:33.231Z,18.80
2022-08-11T06:20:33.185Z,18.86
2022-08-11T06:21:33.193Z,18.92
2022-08-11T06:22:33.249Z,18.98
2022-08-11T06:23:33.545Z,19.03
2022-08-11T06:24:33.265Z,19.07
2022-08-11T06:25:33.434Z,19.11
2022-08-11T06:26:40.799Z,19.16
2022-08-11T06:27:33.109Z,19.21
2022-08-11T06:28:33.083Z,19.27
2022-08-11T06:29:41.023Z,19.33
2022-08-11T06:30:33.090Z,19.39
2022-08-11T06:31:33.049Z,19.50
2022-08-11T06:32:33.095Z,19.60
2022-08-11T06:33:33.060Z,19.66
2022-08-11T06:34:32.988Z,19.70
2022-08-11T06:35:32.997Z,19.75
2022-08-11T06:36:32.972Z,19.80
2022-08-11T06:37:36.399Z,19.86
2022-08-11T06:38:32.959Z,19.92
2022-08-11T06:39:33.032Z,19.98
2022-08-11T06:40:32.949Z,20.04
2022-08-11T06:41:32.938Z,20.10
2022-08-11T06:42:32.925Z,20.14
2022-08-11T06:43:32.908Z,20.18
2022-08-11T06:44:32.877Z,20.20
2022-08-11T06:45:32.865Z,20.23
2022-08-11T06:46:32.855Z,20.23
2022-08-11T06:47:32.869Z,20.20
2022-08-11T06:48:32.802Z,20.18
2022-08-11T06:49:32.876Z,20.19
2022-08-11T06:50:32.785Z,20.24
2022-08-11T06:51:32.816Z,20.32
2022-08-11T06:52:35.919Z,20.39
2022-08-11T06:53:32.751Z,20.47
2022-08-11T06:54:32.727Z,20.56
2022-08-11T06:55:57.673Z,20.63
2022-08-11T06:56:32.765Z,20.67
2022-08-11T06:57:32.691Z,20.72
2022-08-11T06:58:32.695Z,20.79
2022-08-11T06:59:32.692Z,20.88
2022-08-11T07:00:33.101Z,20.98
2022-08-11T07:01:32.721Z,21.08
2022-08-11T07:02:32.748Z,21.18
2022-08-11T07:03:32.609Z,21.26
2022-08-11T07:04:32.648Z,21.33
2022-08-11T07:05:32.601Z,21.38
2022-08-11T07:06:41.615Z,21.44
2022-08-11T07:07:32.588Z,21.49
2022-08-11T07:08:34.694Z,21.54
2022-08-11T07:09:32.559Z,21.59
2022-08-11T07:10:32.549Z,21.64
2022-08-11T07:11:32.569Z,21.71
2022-08-11T07:12:32.585Z,21.78
2022-08-11T07:13:44.559Z,21.85
2022-08-11T07:14:37.773Z,21.91
2022-08-11T07:16:09.088Z,21.95
2022-08-11T07:16:32.530Z,21.94
2022-08-11T07:17:32.458Z,21.93
2022-08-11T07:18:32.412Z,21.94
2022-08-11T07:19:32.454Z,21.98
2022-08-11T07:20:32.388Z,22.05
2022-08-11T07:22:01.794Z,22.09
2022-08-11T07:22:32.375Z,22.10
2022-08-11T07:23:32.362Z,22.12
2022-08-11T07:24:34.511Z,22.19
2022-08-11T07:25:32.409Z,22.22
2022-08-11T07:26:32.300Z,22.23
2022-08-11T07:27:35.525Z,22.25
2022-08-11T07:28:32.348Z,22.30
2022-08-11T07:29:32.269Z,22.35
2022-08-11T07:30:32.250Z,22.42
2022-08-11T07:31:32.261Z,22.53
2022-08-11T07:32:32.239Z,22.64
2022-08-11T07:34:06.982Z,22.73
2022-08-11T07:34:32.238Z,22.82
2022-08-11T07:35:32.195Z,22.88
2022-08-11T07:36:32.169Z,22.94
2022-08-11T07:37:32.161Z,23.03
2022-08-11T07:38:32.184Z,23.14
2022-08-11T07:39:32.254Z,23.24
2022-08-11T07:40:32.148Z,23.34
2022-08-11T07:41:32.114Z,23.43
2022-08-11T07:42:32.092Z,23.51
2022-08-11T07:43:32.087Z,23.53
2022-08-11T07:44:35.128Z,23.48
2022-08-11T07:45:32.076Z,23.44
2022-08-11T07:46:32.123Z,23.41
2022-08-11T07:47:32.046Z,23.36
2022-08-11T07:48:32.037Z,23.28
2022-08-11T07:49:32.059Z,23.23
2022-08-11T07:50:32.036Z,23.22
2022-08-11T07:51:32.059Z,23.23
2022-08-11T07:52:31.964Z,23.27
2022-08-11T07:53:31.971Z,23.39
2022-08-11T07:54:33.406Z,23.55
2022-08-11T07:55:48.996Z,23.66
2022-08-11T07:56:45.588Z,23.73
2022-08-11T07:57:59.430Z,23.84
2022-08-11T07:58:34.743Z,23.97
2022-08-11T08:00:00.131Z,24.09
2022-08-11T08:00:31.899Z,24.21
2022-08-11T08:01:31.922Z,24.30
2022-08-11T08:02:31.829Z,24.41
2022-08-11T08:03:31.864Z,24.53
2022-08-11T08:04:31.820Z,24.62
2022-08-11T08:05:31.797Z,24.72
2022-08-11T08:06:36.574Z,24.81
2022-08-11T08:07:31.800Z,24.89
2022-08-11T08:08:31.767Z,24.95
2022-08-11T08:09:31.765Z,25.01
2022-08-11T08:10:31.744Z,25.11
2022-08-11T08:11:31.755Z,25.21
2022-08-11T08:12:31.737Z,25.30
2022-08-11T08:13:31.699Z,25.36
2022-08-11T08:14:31.691Z,25.43
2022-08-11T08:15:31.738Z,25.49
2022-08-11T08:16:31.658Z,25.61
2022-08-11T08:17:31.651Z,25.87
2022-08-11T08:18:31.637Z,26.10
2022-08-11T08:19:31.618Z,26.18
2022-08-11T08:20:31.638Z,26.23
2022-08-11T08:21:31.590Z,26.35
2022-08-11T08:22:37.938Z,26.48
2022-08-11T08:23:31.578Z,26.65
2022-08-11T08:24:31.549Z,26.86
2022-08-11T08:25:31.550Z,27.07
2022-08-11T08:26:31.537Z,27.08
2022-08-11T08:27:31.517Z,26.89
2022-08-11T08:28:32.684Z,26.68
2022-08-11T08:29:31.517Z,26.54
2022-08-11T08:30:31.486Z,26.43
2022-08-11T08:31:31.460Z,26.38
2022-08-11T08:32:31.515Z,26.34
2022-08-11T08:33:31.471Z,26.29
2022-08-11T08:34:32.409Z,26.23
2022-08-11T08:35:33.047Z,26.23
2022-08-11T08:36:31.410Z,26.39
2022-08-11T08:37:45.003Z,26.66
2022-08-11T08:38:31.401Z,26.92
2022-08-11T08:39:31.373Z,27.23
2022-08-11T08:40:31.360Z,27.54
2022-08-11T08:41:31.330Z,27.81
2022-08-11T08:42:31.368Z,28.11
2022-08-11T08:43:32.516Z,28.34
2022-08-11T08:44:41.147Z,28.58
2022-08-11T08:45:31.284Z,28.66
2022-08-11T08:46:31.306Z,28.66
2022-08-11T08:47:42.333Z,28.71
2022-08-11T08:48:31.290Z,28.68
2022-08-11T08:49:31.259Z,28.53
2022-08-11T08:50:31.254Z,28.45
2022-08-11T08:52:01.492Z,28.50
2022-08-11T08:52:35.918Z,28.68
2022-08-11T08:53:31.217Z,28.81
2022-08-11T08:54:31.178Z,28.90
2022-08-11T08:55:31.183Z,28.97
2022-08-11T08:56:31.178Z,29.09
2022-08-11T08:57:31.160Z,29.29
2022-08-11T08:58:31.164Z,29.36
2022-08-11T08:59:47.891Z,29.43
2022-08-11T09:00:31.115Z,29.54
2022-08-11T09:01:31.260Z,29.43
2022-08-11T09:02:34.358Z,29.20
2022-08-11T09:04:05.053Z,29.07
2022-08-11T09:04:31.086Z,29.08
2022-08-11T09:05:31.072Z,29.25
2022-08-11T09:06:31.577Z,29.43
2022-08-11T09:07:38.742Z,29.23
2022-08-11T09:08:31.025Z,28.99
2022-08-11T09:09:31.044Z,29.00
2022-08-11T09:10:31.028Z,28.83
2022-08-11T09:11:30.979Z,28.49
2022-08-11T09:12:36.419Z,28.15
2022-08-11T09:13:30.965Z,27.98
2022-08-11T09:14:30.973Z,28.13
2022-08-11T09:15:30.942Z,28.44
2022-08-11T09:16:31.022Z,28.80
2022-08-11T09:17:30.908Z,29.12
2022-08-11T09:18:33.742Z,29.39
2022-08-11T09:19:30.920Z,29.49
2022-08-11T09:20:30.902Z,29.33
2022-08-11T09:21:46.338Z,29.08
2022-08-11T09:22:30.863Z,28.96
2022-08-11T09:24:30.865Z,29.20
2022-08-11T09:25:30.856Z,29.50
2022-08-11T09:26:31.276Z,29.69
2022-08-11T09:27:30.800Z,29.68
2022-08-11T09:28:30.820Z,29.68
2022-08-11T09:29:30.797Z,29.73
2022-08-11T09:30:30.768Z,29.74
2022-08-11T09:31:33.480Z,29.65
2022-08-11T09:32:30.762Z,29.43
2022-08-11T09:33:30.756Z,29.39
2022-08-11T09:34:30.739Z,29.54
2022-08-11T09:35:30.713Z,29.49
2022-08-11T09:36:30.716Z,29.39
2022-08-11T09:37:54.971Z,29.56
2022-08-11T09:38:30.685Z,29.78
2022-08-11T09:39:31.234Z,29.58
2022-08-11T09:40:30.717Z,29.10
2022-08-11T09:42:01.300Z,28.90
2022-08-11T09:42:30.667Z,29.14
2022-08-11T09:43:30.620Z,29.68
2022-08-11T09:44:30.617Z,30.21
2022-08-11T09:45:40.118Z,30.67
2022-08-11T09:46:30.619Z,30.96
2022-08-11T09:47:30.636Z,31.16
2022-08-11T09:48:30.620Z,31.49
2022-08-11T09:49:30.569Z,31.91
2022-08-11T09:50:30.546Z,32.34
2022-08-11T09:51:30.530Z,32.46
2022-08-11T09:52:30.532Z,32.19
2022-08-11T09:53:36.680Z,31.78
2022-08-11T09:54:30.533Z,31.42
2022-08-11T09:55:30.509Z,30.92
2022-08-11T09:56:30.491Z,30.17
2022-08-11T09:57:30.469Z,29.42
2022-08-11T09:58:41.555Z,28.85
2022-08-11T09:59:30.475Z,28.28
2022-08-11T10:00:30.454Z,27.68
2022-08-11T10:01:30.494Z,27.25
2022-08-11T10:02:30.418Z,26.90
2022-08-11T10:03:30.391Z,26.63
2022-08-11T10:04:30.401Z,26.46
2022-08-11T10:05:30.399Z,26.33
2022-08-11T10:06:34.499Z,26.23
2022-08-11T10:07:30.348Z,26.20
2022-08-11T10:08:30.368Z,26.24
2022-08-11T10:09:30.354Z,26.33
2022-08-11T10:10:30.317Z,26.59
2022-08-11T10:11:30.327Z,27.12
2022-08-11T10:12:30.304Z,27.86
2022-08-11T10:14:31.006Z,28.63
2022-08-11T10:14:43.997Z,29.32
2022-08-11T10:15:30.370Z,29.80
2022-08-11T10:16:30.259Z,30.05
2022-08-11T10:17:30.259Z,30.24
2022-08-11T10:18:30.235Z,30.58
2022-08-11T10:19:30.211Z,30.82
2022-08-11T10:20:30.215Z,31.01
2022-08-11T10:21:30.204Z,30.99
2022-08-11T10:22:30.215Z,30.61
2022-08-11T10:23:30.174Z,30.13
2022-08-11T10:24:30.202Z,29.57
2022-08-11T10:25:30.157Z,29.08
2022-08-11T10:26:31.972Z,29.01
2022-08-11T10:28:16.714Z,29.17
2022-08-11T10:28:44.728Z,29.40
2022-08-11T10:29:36.749Z,29.65
2022-08-11T10:30:30.103Z,29.65
2022-08-11T10:31:39.549Z,29.46
2022-08-11T10:32:31.499Z,29.42
2022-08-11T10:33:36.921Z,29.63
2022-08-11T10:34:30.036Z,30.14
2022-08-11T10:35:30.013Z,30.77
2022-08-11T10:36:30.015Z,31.28
2022-08-11T10:38:08.911Z,31.67
2022-08-11T10:38:30.003Z,31.83
2022-08-11T10:39:30.069Z,31.70
2022-08-11T10:40:29.974Z,31.39
2022-08-11T10:41:29.985Z,31.21
2022-08-11T10:42:47.713Z,30.93
2022-08-11T10:44:02.087Z,30.62
2022-08-11T10:44:29.946Z,30.58
2022-08-11T10:45:29.902Z,30.79
2022-08-11T10:46:30.726Z,31.14
2022-08-11T10:47:29.928Z,31.34
2022-08-11T10:48:29.879Z,31.38
2022-08-11T10:49:29.865Z,31.53
2022-08-11T10:50:29.958Z,31.72
2022-08-11T10:51:52.181Z,31.92
2022-08-11T10:52:29.895Z,32.21
2022-08-11T10:53:29.832Z,32.51
2022-08-11T10:54:29.814Z,32.79
2022-08-11T10:55:29.799Z,33.05
2022-08-11T10:56:29.830Z,32.99
2022-08-11T10:57:29.815Z,32.39
2022-08-11T10:58:29.799Z,31.69
2022-08-11T10:59:29.764Z,31.37
2022-08-11T11:00:29.778Z,30.92
2022-08-11T11:01:29.803Z,30.34
2022-08-11T11:02:29.793Z,30.20
2022-08-11T11:03:29.731Z,30.43
2022-08-11T11:04:29.738Z,30.75
2022-08-11T11:05:29.710Z,31.11
2022-08-11T11:06:30.645Z,31.56
2022-08-11T11:07:29.790Z,32.02
2022-08-11T11:08:29.708Z,32.55
2022-08-11T11:09:29.662Z,33.02
2022-08-11T11:10:29.669Z,33.33
2022-08-11T11:11:29.676Z,33.42
2022-08-11T11:12:29.799Z,33.42
2022-08-11T11:13:29.612Z,33.41
2022-08-11T11:14:29.635Z,33.44
2022-08-11T11:15:29.612Z,33.42
2022-08-11T11:16:29.636Z,33.24
2022-08-11T11:17:29.578Z,33.00
2022-08-11T11:18:29.559Z,32.72
2022-08-11T11:19:29.557Z,32.55
2022-08-11T11:20:37.038Z,32.63
2022-08-11T11:21:29.553Z,32.44
2022-08-11T11:22:29.553Z,31.84
2022-08-11T11:23:29.524Z,31.43
2022-08-11T11:24:29.516Z,31.36
2022-08-11T11:25:29.505Z,31.44
2022-08-11T11:26:29.470Z,31.58
2022-08-11T11:27:29.465Z,31.64
2022-08-11T11:28:29.510Z,31.73
2022-08-11T11:29:29.434Z,31.97
2022-08-11T11:30:29.439Z,32.32
2022-08-11T11:31:29.453Z,32.63
2022-08-11T11:32:29.446Z,32.71
2022-08-11T11:33:29.390Z,32.75
2022-08-11T11:34:29.402Z,32.81
2022-08-11T11:35:29.391Z,32.71
2022-08-11T11:36:29.391Z,32.43
2022-08-11T11:37:29.371Z,32.12
2022-08-11T11:38:29.409Z,32.05
2022-08-11T11:39:29.456Z,32.20
2022-08-11T11:40:31.735Z,32.48
2022-08-11T11:41:29.325Z,32.88
2022-08-11T11:42:29.372Z,33.21
2022-08-11T11:43:29.301Z,33.44
2022-08-11T11:44:29.295Z,33.67
2022-08-11T11:45:29.266Z,33.75
2022-08-11T11:46:30.315Z,33.57
2022-08-11T11:47:29.308Z,33.11
2022-08-11T11:48:29.290Z,32.31
2022-08-11T11:49:29.273Z,31.30
2022-08-11T11:50:31.671Z,30.61
2022-08-11T11:51:29.216Z,30.49
2022-08-11T11:52:29.269Z,30.59
2022-08-11T11:53:29.234Z,30.62
2022-08-11T11:54:29.217Z,30.65
2022-08-11T11:55:29.183Z,30.73
2022-08-11T11:56:29.161Z,31.01
2022-08-11T11:57:29.163Z,31.32
2022-08-11T11:58:29.161Z,31.68
2022-08-11T11:59:29.205Z,32.14
2022-08-11T12:00:33.241Z,32.59
2022-08-11T12:01:29.117Z,32.84
2022-08-11T12:02:29.125Z,32.87
2022-08-11T12:03:29.119Z,32.91
2022-08-11T12:04:29.179Z,32.97
2022-08-11T12:05:29.067Z,32.76
2022-08-11T12:06:29.068Z,32.49
2022-08-11T12:07:29.087Z,32.37
2022-08-11T12:08:29.020Z,32.34
2022-08-11T12:09:29.079Z,32.53
2022-08-11T12:10:29.047Z,32.95
2022-08-11T12:11:29.000Z,33.18
2022-08-11T12:12:28.998Z,33.19
2022-08-11T12:13:29.002Z,33.24
2022-08-11T12:14:29.018Z,33.34
2022-08-11T12:16:03.618Z,33.26
2022-08-11T12:16:37.222Z,33.19
2022-08-11T12:17:28.939Z,33.34
2022-08-11T12:18:28.953Z,33.67
2022-08-11T12:19:28.965Z,34.08
2022-08-11T12:20:33.535Z,34.36
2022-08-11T12:21:28.913Z,34.42
2022-08-11T12:22:28.924Z,34.41
2022-08-11T12:23:28.882Z,34.37
2022-08-11T12:24:29.504Z,34.29
2022-08-11T12:25:28.871Z,34.15
2022-08-11T12:26:28.887Z,34.03
2022-08-11T12:27:28.916Z,33.83
2022-08-11T12:28:29.093Z,33.72
2022-08-11T12:29:28.853Z,33.64
2022-08-11T12:30:28.827Z,33.42
2022-08-11T12:31:28.974Z,33.25
2022-08-11T12:32:28.872Z,33.24
2022-08-11T12:33:28.754Z,33.14
2022-08-11T12:34:28.751Z,33.03
2022-08-11T12:35:28.751Z,33.07
2022-08-11T12:36:28.733Z,33.30
2022-08-11T12:37:28.782Z,33.61
2022-08-11T12:38:29.808Z,33.78
2022-08-11T12:40:16.939Z,33.56
2022-08-11T12:41:28.770Z,33.00
2022-08-11T12:42:28.713Z,33.00
2022-08-11T12:43:38.312Z,33.10
2022-08-11T12:44:28.706Z,33.36
2022-08-11T12:45:28.736Z,33.62
2022-08-11T12:46:28.638Z,33.90
2022-08-11T12:47:28.637Z,34.07
2022-08-11T12:48:59.536Z,34.02
2022-08-11T12:49:28.629Z,34.01
2022-08-11T12:50:28.630Z,34.23
2022-08-11T12:51:28.609Z,34.57
2022-08-11T12:52:28.600Z,34.73
2022-08-11T12:53:28.631Z,34.56
2022-08-11T12:54:28.666Z,34.35